createdAt,value
2018-01-16T00:00:23.833Z,989.76
2018-01-16T00:01:23.791Z,989.57
2018-01-16T00:02:23.750Z,989.64
2018-01-16T00:03:28.995Z,989.64
2018-01-16T00:04:23.647Z,989.65
2018-01-16T00:05:23.600Z,989.63
2018-01-16T00:06:23.554Z,989.62
2018-01-16T00:07:23.507Z,989.69
2018-01-16T00:08:23.466Z,989.64
2018-01-16T00:09:23.416Z,989.65
2018-01-16T00:10:23.365Z,989.63
2018-01-16T00:11:23.319Z,989.66
2018-01-16T00:12:23.275Z,989.67
2018-01-16T00:13:23.224Z,989.68
2018-01-16T00:14:23.189Z,989.64
2018-01-16T00:15:23.134Z,989.71
2018-01-16T00:16:23.086Z,989.68
2018-01-16T00:17:23.038Z,989.83
2018-01-16T00:18:22.991Z,989.78
2018-01-16T00:19:22.947Z,989.78
2018-01-16T00:20:22.899Z,989.86
2018-01-16T00:21:22.854Z,989.74
2018-01-16T00:22:22.808Z,989.78
2018-01-16T00:23:22.758Z,989.94
2018-01-16T00:24:22.718Z,989.86
2018-01-16T00:25:22.662Z,989.98
2018-01-16T00:26:22.616Z,989.92
2018-01-16T00:27:22.574Z,989.92
2018-01-16T00:28:22.526Z,989.95
2018-01-16T00:29:22.481Z,989.91
2018-01-16T00:30:22.437Z,989.89
2018-01-16T00:31:22.383Z,989.85
2018-01-16T00:32:22.335Z,989.83
2018-01-16T00:33:22.291Z,989.81
2018-01-16T00:34:22.242Z,989.87
2018-01-16T00:35:22.198Z,989.79
2018-01-16T00:36:22.157Z,989.82
2018-01-16T00:37:22.104Z,989.88
2018-01-16T00:38:22.058Z,989.95
2018-01-16T00:39:22.008Z,989.89
2018-01-16T00:40:21.961Z,989.94
2018-01-16T00:41:21.916Z,989.98
2018-01-16T00:42:21.873Z,989.91
2018-01-16T00:43:21.822Z,989.93
2018-01-16T00:44:21.776Z,989.83
2018-01-16T00:45:21.727Z,989.85
2018-01-16T00:46:21.682Z,989.93
2018-01-16T00:47:21.634Z,989.93
2018-01-16T00:48:21.586Z,990.01
2018-01-16T00:49:21.538Z,989.98
2018-01-16T00:50:21.494Z,989.92
2018-01-16T00:51:21.449Z,989.97
2018-01-16T00:52:21.398Z,990.08
2018-01-16T00:53:21.378Z,990.08
2018-01-16T00:54:21.307Z,990.03
2018-01-16T00:55:21.260Z,990.05
2018-01-16T00:56:21.210Z,990.09
2018-01-16T00:57:21.168Z,990.09
2018-01-16T00:58:21.120Z,990.01
2018-01-16T00:59:21.078Z,990.01
2018-01-16T01:00:21.027Z,989.91
2018-01-16T01:01:20.975Z,989.96
2018-01-16T01:02:20.930Z,990.04
2018-01-16T01:03:20.891Z,989.96
2018-01-16T01:04:20.843Z,990.05
2018-01-16T01:05:20.790Z,990.00
2018-01-16T01:06:20.743Z,990.06
2018-01-16T01:07:20.696Z,990.05
2018-01-16T01:08:20.652Z,990.00
2018-01-16T01:09:20.601Z,990.08
2018-01-16T01:10:20.639Z,990.07
2018-01-16T01:11:20.512Z,990.06
2018-01-16T01:12:20.462Z,989.99
2018-01-16T01:13:20.411Z,990.04
2018-01-16T01:14:20.367Z,990.07
2018-01-16T01:15:20.319Z,989.99
2018-01-16T01:16:20.273Z,989.99
2018-01-16T01:17:20.228Z,989.93
2018-01-16T01:18:20.181Z,989.94
2018-01-16T01:19:20.131Z,989.97
2018-01-16T01:20:20.085Z,990.00
2018-01-16T01:21:20.037Z,989.97
2018-01-16T01:22:19.994Z,990.05
2018-01-16T01:23:19.948Z,990.05
2018-01-16T01:24:19.901Z,990.06
2018-01-16T01:25:19.851Z,990.02
2018-01-16T01:26:19.804Z,990.04
2018-01-16T01:27:19.764Z,990.01
2018-01-16T01:28:19.708Z,990.04
2018-01-16T01:29:19.660Z,989.96
2018-01-16T01:30:19.613Z,989.90
2018-01-16T01:31:19.568Z,989.95
2018-01-16T01:32:19.524Z,989.98
2018-01-16T01:33:19.492Z,989.94
2018-01-16T01:34:19.434Z,989.85
2018-01-16T01:35:19.392Z,989.87
2018-01-16T01:36:19.335Z,989.85
2018-01-16T01:37:19.289Z,989.94
2018-01-16T01:38:19.242Z,989.93
2018-01-16T01:39:19.192Z,989.93
2018-01-16T01:40:19.144Z,989.86
2018-01-16T01:41:19.103Z,989.80
2018-01-16T01:42:19.055Z,989.82
2018-01-16T01:43:19.009Z,989.75
2018-01-16T01:44:18.960Z,989.75
2018-01-16T01:45:18.912Z,989.81
2018-01-16T01:46:18.859Z,989.68
2018-01-16T01:47:18.820Z,989.66
2018-01-16T01:48:18.766Z,989.66
2018-01-16T01:49:18.721Z,989.59
2018-01-16T01:50:18.677Z,989.65
2018-01-16T01:51:18.628Z,989.60
2018-01-16T01:52:18.582Z,989.55
2018-01-16T01:53:18.534Z,989.54
2018-01-16T01:54:18.486Z,989.46
2018-01-16T01:55:18.439Z,989.44
2018-01-16T01:56:18.392Z,989.43
2018-01-16T01:57:18.348Z,989.37
2018-01-16T01:58:18.310Z,989.36
2018-01-16T01:59:18.250Z,989.27
2018-01-16T02:00:18.203Z,989.42
2018-01-16T02:01:18.158Z,989.32
2018-01-16T02:02:18.115Z,989.46
2018-01-16T02:03:18.067Z,989.38
2018-01-16T02:04:18.019Z,989.43
2018-01-16T02:05:17.974Z,989.46
2018-01-16T02:06:17.921Z,989.50
2018-01-16T02:07:17.876Z,989.46
2018-01-16T02:08:17.829Z,989.44
2018-01-16T02:09:17.779Z,989.44
2018-01-16T02:10:17.734Z,989.27
2018-01-16T02:11:17.688Z,989.26
2018-01-16T02:12:17.638Z,989.16
2018-01-16T02:13:17.592Z,989.13
2018-01-16T02:14:17.546Z,989.08
2018-01-16T02:15:17.500Z,989.18
2018-01-16T02:16:17.449Z,989.16
2018-01-16T02:17:17.406Z,989.20
2018-01-16T02:18:17.360Z,989.22
2018-01-16T02:19:17.320Z,989.31
2018-01-16T02:20:17.273Z,989.28
2018-01-16T02:21:17.215Z,989.29
2018-01-16T02:22:17.173Z,989.24
2018-01-16T02:23:17.122Z,989.25
2018-01-16T02:24:17.078Z,989.23
2018-01-16T02:25:17.026Z,989.16
2018-01-16T02:26:16.980Z,989.13
2018-01-16T02:27:16.934Z,989.08
2018-01-16T02:28:16.883Z,989.12
2018-01-16T02:29:16.837Z,989.11
2018-01-16T02:30:16.788Z,989.06
2018-01-16T02:31:16.745Z,989.01
2018-01-16T02:32:16.696Z,989.02
2018-01-16T02:33:16.649Z,989.07
2018-01-16T02:34:16.607Z,989.07
2018-01-16T02:35:16.562Z,989.11
2018-01-16T02:36:16.511Z,989.15
2018-01-16T02:37:16.458Z,989.11
2018-01-16T02:38:16.410Z,989.15
2018-01-16T02:39:16.365Z,989.13
2018-01-16T02:40:16.321Z,989.05
2018-01-16T02:41:16.275Z,989.00
2018-01-16T02:42:16.222Z,989.06
2018-01-16T02:43:16.178Z,989.01
2018-01-16T02:44:16.132Z,989.03
2018-01-16T02:45:16.086Z,988.99
2018-01-16T02:46:16.035Z,989.01
2018-01-16T02:47:15.988Z,989.03
2018-01-16T02:48:15.944Z,989.01
2018-01-16T02:49:15.895Z,989.00
2018-01-16T02:50:15.846Z,988.98
2018-01-16T02:51:15.798Z,988.99
2018-01-16T02:52:15.751Z,988.89
2018-01-16T02:53:15.709Z,988.94
2018-01-16T02:54:15.662Z,988.98
2018-01-16T02:55:15.657Z,988.89
2018-01-16T02:56:15.562Z,988.95
2018-01-16T02:57:15.515Z,988.94
2018-01-16T02:58:15.470Z,988.94
2018-01-16T02:59:15.426Z,988.93
2018-01-16T03:00:15.373Z,988.94
2018-01-16T03:01:15.329Z,988.90
2018-01-16T03:02:15.282Z,988.92
2018-01-16T03:03:15.234Z,988.82
2018-01-16T03:04:15.191Z,988.81
2018-01-16T03:05:15.140Z,988.80
2018-01-16T03:06:15.093Z,988.82
2018-01-16T03:07:15.049Z,988.73
2018-01-16T03:08:15.005Z,988.72
2018-01-16T03:09:14.948Z,988.78
2018-01-16T03:10:14.905Z,988.76
2018-01-16T03:11:14.856Z,988.72
2018-01-16T03:12:14.808Z,988.61
2018-01-16T03:13:14.761Z,988.55
2018-01-16T03:14:14.722Z,988.69
2018-01-16T03:15:14.674Z,988.76
2018-01-16T03:16:14.619Z,988.66
2018-01-16T03:17:14.576Z,988.67
2018-01-16T03:18:14.524Z,988.75
2018-01-16T03:19:14.480Z,988.78
2018-01-16T03:20:14.438Z,988.75
2018-01-16T03:21:14.384Z,988.74
2018-01-16T03:22:14.335Z,988.71
2018-01-16T03:23:14.292Z,988.70
2018-01-16T03:24:14.244Z,988.63
2018-01-16T03:25:14.197Z,988.58
2018-01-16T03:26:14.150Z,988.56
2018-01-16T03:27:14.109Z,988.48
2018-01-16T03:28:14.056Z,988.49
2018-01-16T03:29:14.008Z,988.49
2018-01-16T03:30:13.966Z,988.47
2018-01-16T03:31:13.915Z,988.51
2018-01-16T03:32:13.870Z,988.49
2018-01-16T03:33:13.819Z,988.54
2018-01-16T03:34:13.774Z,988.60
2018-01-16T03:35:13.729Z,988.48
2018-01-16T03:36:13.678Z,988.62
2018-01-16T03:37:13.633Z,988.66
2018-01-16T03:38:13.586Z,988.56
2018-01-16T03:39:13.541Z,988.52
2018-01-16T03:40:13.492Z,988.57
2018-01-16T03:41:13.439Z,988.55
2018-01-16T03:42:13.392Z,988.52
2018-01-16T03:43:13.347Z,988.51
2018-01-16T03:44:13.301Z,988.47
2018-01-16T03:45:13.250Z,988.48
2018-01-16T03:46:13.205Z,988.47
2018-01-16T03:47:13.160Z,988.50
2018-01-16T03:48:13.111Z,988.36
2018-01-16T03:49:13.062Z,988.39
2018-01-16T03:50:13.020Z,988.38
2018-01-16T03:51:12.980Z,988.37
2018-01-16T03:52:12.921Z,988.43
2018-01-16T03:53:12.880Z,988.39
2018-01-16T03:54:12.827Z,988.33
2018-01-16T03:55:12.781Z,988.32
2018-01-16T03:56:12.735Z,988.34
2018-01-16T03:57:12.688Z,988.26
2018-01-16T03:58:12.641Z,988.25
2018-01-16T03:59:12.594Z,988.28
2018-01-16T04:00:12.546Z,988.23
2018-01-16T04:01:12.503Z,988.28
2018-01-16T04:02:12.453Z,988.21
2018-01-16T04:03:12.405Z,988.15
2018-01-16T04:04:12.357Z,988.16
2018-01-16T04:05:12.309Z,988.22
2018-01-16T04:06:12.263Z,988.22
2018-01-16T04:07:12.215Z,988.22
2018-01-16T04:08:12.168Z,988.13
2018-01-16T04:09:12.124Z,988.09
2018-01-16T04:10:12.080Z,988.09
2018-01-16T04:11:12.029Z,988.07
2018-01-16T04:12:11.981Z,988.11
2018-01-16T04:13:11.935Z,988.09
2018-01-16T04:14:11.888Z,988.05
2018-01-16T04:15:11.837Z,987.95
2018-01-16T04:16:11.789Z,987.86
2018-01-16T04:17:11.750Z,987.93
2018-01-16T04:18:11.696Z,987.98
2018-01-16T04:19:11.650Z,988.03
2018-01-16T04:20:11.606Z,987.96
2018-01-16T04:21:11.558Z,987.95
2018-01-16T04:22:11.506Z,988.00
2018-01-16T04:23:11.461Z,987.94
2018-01-16T04:24:11.414Z,987.82
2018-01-16T04:25:11.365Z,987.84
2018-01-16T04:26:11.322Z,987.77
2018-01-16T04:27:11.275Z,987.88
2018-01-16T04:28:11.223Z,987.89
2018-01-16T04:29:11.175Z,987.79
2018-01-16T04:30:11.134Z,987.85
2018-01-16T04:31:11.086Z,987.78
2018-01-16T04:32:11.036Z,987.82
2018-01-16T04:33:10.993Z,987.76
2018-01-16T04:34:10.941Z,987.77
2018-01-16T04:35:10.896Z,987.72
2018-01-16T04:36:10.850Z,987.70
2018-01-16T04:37:10.803Z,987.70
2018-01-16T04:38:10.755Z,987.74
2018-01-16T04:39:10.708Z,987.72
2018-01-16T04:40:10.663Z,987.83
2018-01-16T04:41:10.615Z,987.73
2018-01-16T04:42:10.564Z,987.75
2018-01-16T04:43:10.517Z,987.85
2018-01-16T04:44:10.469Z,987.77
2018-01-16T04:45:10.425Z,987.71
2018-01-16T04:46:10.377Z,987.72
2018-01-16T04:47:10.334Z,987.74
2018-01-16T04:48:10.285Z,987.72
2018-01-16T04:49:10.233Z,987.82
2018-01-16T04:50:10.185Z,987.67
2018-01-16T04:51:10.139Z,987.75
2018-01-16T04:52:10.094Z,987.72
2018-01-16T04:53:10.047Z,987.72
2018-01-16T04:54:09.997Z,987.70
2018-01-16T04:55:09.953Z,987.67
2018-01-16T04:56:09.904Z,987.69
2018-01-16T04:57:09.860Z,987.66
2018-01-16T04:58:09.808Z,987.63
2018-01-16T04:59:09.769Z,987.65
2018-01-16T05:00:09.714Z,987.62
2018-01-16T05:01:09.667Z,987.63
2018-01-16T05:02:09.624Z,987.62
2018-01-16T05:03:09.576Z,987.56
2018-01-16T05:04:09.529Z,987.60
2018-01-16T05:05:09.479Z,987.60
2018-01-16T05:06:09.433Z,987.62
2018-01-16T05:07:09.384Z,987.66
2018-01-16T05:08:09.338Z,987.63
2018-01-16T05:09:09.292Z,987.60
2018-01-16T05:10:09.257Z,987.57
2018-01-16T05:11:09.194Z,987.53
2018-01-16T05:12:09.152Z,987.66
2018-01-16T05:13:09.108Z,987.55
2018-01-16T05:14:09.054Z,987.65
2018-01-16T05:15:09.006Z,987.42
2018-01-16T05:16:08.959Z,987.72
2018-01-16T05:17:08.915Z,987.91
2018-01-16T05:18:08.866Z,987.85
2018-01-16T05:19:08.817Z,987.92
2018-01-16T05:20:08.791Z,987.92
2018-01-16T05:21:08.727Z,987.86
2018-01-16T05:22:08.674Z,987.84
2018-01-16T05:23:08.629Z,987.81
2018-01-16T05:24:08.583Z,987.84
2018-01-16T05:25:08.537Z,987.79
2018-01-16T05:26:08.487Z,987.74
2018-01-16T05:27:08.454Z,987.55
2018-01-16T05:28:08.395Z,987.64
2018-01-16T05:29:08.348Z,987.62
2018-01-16T05:30:08.298Z,987.60
2018-01-16T05:31:08.265Z,987.52
2018-01-16T05:32:08.207Z,987.53
2018-01-16T05:33:08.154Z,987.53
2018-01-16T05:34:08.108Z,987.53
2018-01-16T05:35:08.064Z,987.50
2018-01-16T05:36:08.019Z,987.53
2018-01-16T05:37:07.964Z,987.45
2018-01-16T05:38:07.922Z,987.46
2018-01-16T05:39:07.875Z,987.44
2018-01-16T05:40:07.827Z,987.53
2018-01-16T05:41:07.775Z,987.49
2018-01-16T05:42:07.733Z,987.45
2018-01-16T05:43:07.682Z,987.50
2018-01-16T05:44:07.646Z,987.53
2018-01-16T05:45:07.585Z,987.57
2018-01-16T05:46:07.540Z,987.51
2018-01-16T05:47:07.496Z,987.47
2018-01-16T05:48:07.503Z,987.49
2018-01-16T05:49:07.398Z,987.42
2018-01-16T05:50:07.351Z,987.43
2018-01-16T05:51:07.310Z,987.47
2018-01-16T05:52:07.255Z,987.45
2018-01-16T05:53:07.207Z,987.48
2018-01-16T05:54:07.164Z,987.42
2018-01-16T05:55:07.112Z,987.46
2018-01-16T05:56:07.066Z,987.43
2018-01-16T05:57:07.019Z,987.43
2018-01-16T05:58:06.974Z,987.42
2018-01-16T05:59:06.924Z,987.43
2018-01-16T06:00:06.878Z,987.42
2018-01-16T06:01:06.829Z,987.37
2018-01-16T06:02:06.779Z,987.42
2018-01-16T06:03:06.737Z,987.41
2018-01-16T06:04:06.695Z,987.40
2018-01-16T06:05:06.642Z,987.47
2018-01-16T06:06:06.591Z,987.38
2018-01-16T06:07:06.545Z,987.41
2018-01-16T06:08:06.498Z,987.42
2018-01-16T06:09:06.449Z,987.52
2018-01-16T06:10:06.402Z,987.46
2018-01-16T06:11:06.358Z,987.40
2018-01-16T06:12:06.332Z,987.39
2018-01-16T06:13:06.260Z,987.47
2018-01-16T06:14:06.214Z,987.43
2018-01-16T06:15:06.168Z,987.43
2018-01-16T06:16:06.119Z,987.39
2018-01-16T06:17:06.075Z,987.44
2018-01-16T06:18:06.022Z,987.36
2018-01-16T06:19:05.979Z,987.44
2018-01-16T06:20:05.931Z,987.48
2018-01-16T06:21:05.885Z,987.47
2018-01-16T06:22:05.837Z,987.39
2018-01-16T06:23:05.792Z,987.37
2018-01-16T06:24:05.739Z,987.37
2018-01-16T06:25:05.691Z,987.41
2018-01-16T06:26:05.644Z,987.37
2018-01-16T06:27:05.600Z,987.36
2018-01-16T06:28:05.563Z,987.34
2018-01-16T06:29:05.502Z,987.40
2018-01-16T06:30:05.460Z,987.39
2018-01-16T06:31:05.454Z,987.37
2018-01-16T06:32:05.371Z,987.34
2018-01-16T06:33:05.319Z,987.33
2018-01-16T06:34:05.268Z,987.37
2018-01-16T06:35:05.221Z,987.31
2018-01-16T06:36:05.176Z,987.15
2018-01-16T06:37:05.126Z,987.16
2018-01-16T06:38:05.080Z,987.16
2018-01-16T06:39:05.029Z,987.18
2018-01-16T06:40:04.983Z,987.19
2018-01-16T06:41:04.938Z,987.25
2018-01-16T06:42:04.890Z,987.27
2018-01-16T06:43:04.840Z,987.41
2018-01-16T06:44:04.798Z,987.40
2018-01-16T06:45:04.746Z,987.45
2018-01-16T06:46:04.700Z,987.44
2018-01-16T06:47:04.654Z,987.40
2018-01-16T06:48:04.605Z,987.42
2018-01-16T06:49:04.573Z,987.38
2018-01-16T06:50:04.534Z,987.47
2018-01-16T06:51:04.470Z,987.44
2018-01-16T06:52:04.417Z,987.42
2018-01-16T06:53:04.369Z,987.38
2018-01-16T06:54:04.322Z,987.36
2018-01-16T06:55:04.273Z,987.43
2018-01-16T06:56:04.227Z,987.27
2018-01-16T06:57:04.194Z,987.27
2018-01-16T06:58:04.135Z,987.20
2018-01-16T06:59:04.088Z,987.28
2018-01-16T07:00:04.036Z,987.31
2018-01-16T07:01:03.989Z,987.21
2018-01-16T07:02:03.943Z,987.31
2018-01-16T07:03:03.897Z,987.38
2018-01-16T07:04:03.847Z,987.36
2018-01-16T07:05:03.805Z,987.38
2018-01-16T07:06:03.753Z,987.41
2018-01-16T07:07:03.708Z,987.45
2018-01-16T07:08:03.661Z,987.43
2018-01-16T07:09:03.615Z,987.43
2018-01-16T07:10:03.567Z,987.41
2018-01-16T07:11:03.523Z,987.42
2018-01-16T07:12:03.472Z,987.34
2018-01-16T07:13:03.424Z,987.43
2018-01-16T07:14:03.373Z,987.42
2018-01-16T07:15:03.328Z,987.34
2018-01-16T07:16:03.282Z,987.31
2018-01-16T07:17:03.236Z,987.32
2018-01-16T07:18:03.186Z,987.30
2018-01-16T07:19:03.145Z,987.27
2018-01-16T07:20:03.092Z,987.31
2018-01-16T07:21:03.042Z,987.28
2018-01-16T07:22:03.021Z,987.35
2018-01-16T07:23:02.954Z,987.32
2018-01-16T07:24:02.926Z,987.34
2018-01-16T07:25:02.861Z,987.37
2018-01-16T07:26:02.810Z,987.39
2018-01-16T07:27:02.762Z,987.28
2018-01-16T07:28:02.718Z,987.31
2018-01-16T07:29:02.665Z,987.31
2018-01-16T07:30:02.619Z,987.32
2018-01-16T07:31:02.572Z,987.27
2018-01-16T07:32:02.581Z,987.25
2018-01-16T07:33:02.477Z,987.27
2018-01-16T07:34:02.440Z,987.26
2018-01-16T07:35:02.385Z,987.26
2018-01-16T07:36:02.343Z,987.24
2018-01-16T07:37:02.289Z,987.23
2018-01-16T07:38:02.244Z,987.18
2018-01-16T07:39:02.194Z,987.12
2018-01-16T07:40:02.151Z,987.16
2018-01-16T07:41:02.102Z,987.16
2018-01-16T07:42:02.056Z,987.29
2018-01-16T07:43:02.006Z,987.19
2018-01-16T07:44:01.963Z,987.23
2018-01-16T07:45:01.924Z,987.27
2018-01-16T07:46:01.868Z,987.30
2018-01-16T07:47:01.818Z,987.38
2018-01-16T07:48:01.774Z,987.25
2018-01-16T07:49:01.722Z,987.28
2018-01-16T07:50:01.676Z,987.28
2018-01-16T07:51:01.631Z,987.21
2018-01-16T07:52:01.581Z,987.30
2018-01-16T07:53:01.535Z,987.28
2018-01-16T07:54:01.491Z,987.34
2018-01-16T07:55:01.440Z,987.30
2018-01-16T07:56:01.393Z,987.42
2018-01-16T07:57:01.346Z,987.41
2018-01-16T07:58:01.297Z,987.42
2018-01-16T07:59:01.277Z,987.41
2018-01-16T08:00:01.202Z,987.34
2018-01-16T08:01:01.155Z,987.39
2018-01-16T08:02:01.114Z,987.30
2018-01-16T08:03:01.061Z,987.27
2018-01-16T08:04:01.015Z,987.22
2018-01-16T08:05:00.971Z,987.28
2018-01-16T08:06:00.931Z,987.16
2018-01-16T08:07:00.892Z,987.22
2018-01-16T08:08:00.832Z,987.25
2018-01-16T08:09:00.783Z,987.17
2018-01-16T08:10:00.733Z,987.21
2018-01-16T08:11:00.687Z,987.16
2018-01-16T08:12:00.635Z,987.21
2018-01-16T08:13:00.590Z,987.17
2018-01-16T08:14:00.541Z,987.18
2018-01-16T08:15:00.496Z,987.15
2018-01-16T08:16:00.449Z,987.21
2018-01-16T08:17:00.404Z,987.20
2018-01-16T08:18:00.353Z,987.22
2018-01-16T08:19:00.313Z,987.22
2018-01-16T08:20:00.263Z,987.21
2018-01-16T08:21:00.209Z,987.26
2018-01-16T08:22:00.164Z,987.34
2018-01-16T08:23:00.115Z,987.44
2018-01-16T08:24:00.067Z,987.36
2018-01-16T08:25:00.031Z,987.37
2018-01-16T08:25:59.971Z,987.35
2018-01-16T08:26:59.926Z,987.31
2018-01-16T08:27:59.883Z,987.28
2018-01-16T08:28:59.828Z,987.27
2018-01-16T08:29:59.786Z,987.27
2018-01-16T08:30:59.736Z,987.23
2018-01-16T08:31:59.690Z,987.22
2018-01-16T08:32:59.649Z,987.20
2018-01-16T08:33:59.597Z,987.26
2018-01-16T08:34:59.550Z,987.25
2018-01-16T08:35:59.501Z,987.22
2018-01-16T08:36:59.455Z,987.25
2018-01-16T08:37:59.408Z,987.23
2018-01-16T08:38:59.362Z,987.24
2018-01-16T08:39:59.311Z,987.23
2018-01-16T08:40:59.263Z,987.31
2018-01-16T08:41:59.218Z,987.25
2018-01-16T08:42:59.171Z,987.24
2018-01-16T08:43:59.123Z,987.21
2018-01-16T08:44:59.075Z,987.23
2018-01-16T08:45:59.028Z,987.30
2018-01-16T08:46:58.979Z,987.33
2018-01-16T08:47:58.932Z,987.34
2018-01-16T08:48:58.890Z,987.35
2018-01-16T08:49:58.876Z,987.27
2018-01-16T08:50:58.793Z,987.26
2018-01-16T08:51:58.745Z,987.25
2018-01-16T08:52:58.700Z,987.21
2018-01-16T08:53:58.650Z,987.26
2018-01-16T08:54:58.603Z,987.25
2018-01-16T08:55:58.555Z,987.21
2018-01-16T08:56:58.511Z,987.23
2018-01-16T08:57:58.461Z,987.22
2018-01-16T08:58:58.418Z,987.23
2018-01-16T08:59:58.367Z,987.33
2018-01-16T09:00:58.318Z,987.31
2018-01-16T09:01:58.278Z,987.30
2018-01-16T09:02:58.226Z,987.31
2018-01-16T09:03:58.178Z,987.35
2018-01-16T09:04:58.131Z,987.30
2018-01-16T09:05:58.084Z,987.29
2018-01-16T09:06:58.049Z,987.35
2018-01-16T09:07:57.992Z,987.33
2018-01-16T09:08:57.942Z,987.27
2018-01-16T09:09:57.898Z,987.37
2018-01-16T09:10:57.852Z,987.31
2018-01-16T09:11:57.800Z,987.36
2018-01-16T09:12:57.756Z,987.45
2018-01-16T09:13:57.707Z,987.45
2018-01-16T09:14:57.661Z,987.36
2018-01-16T09:15:57.614Z,987.57
2018-01-16T09:16:57.567Z,987.48
2018-01-16T09:17:57.526Z,987.45
2018-01-16T09:18:57.474Z,987.41
2018-01-16T09:19:57.425Z,987.51
2018-01-16T09:20:57.382Z,987.41
2018-01-16T09:21:57.336Z,987.49
2018-01-16T09:22:57.285Z,987.51
2018-01-16T09:23:57.241Z,987.43
2018-01-16T09:24:57.191Z,987.37
2018-01-16T09:25:57.146Z,987.35
2018-01-16T09:26:57.099Z,987.39
2018-01-16T09:27:57.052Z,987.39
2018-01-16T09:28:57.006Z,987.40
2018-01-16T09:29:56.961Z,987.51
2018-01-16T09:30:56.921Z,987.56
2018-01-16T09:31:56.864Z,987.52
2018-01-16T09:32:56.826Z,987.73
2018-01-16T09:33:56.769Z,987.72
2018-01-16T09:34:56.775Z,987.94
2018-01-16T09:35:56.676Z,988.25
2018-01-16T09:36:56.631Z,988.63
2018-01-16T09:37:56.585Z,988.99
2018-01-16T09:38:56.541Z,988.99
2018-01-16T09:39:56.490Z,988.89
2018-01-16T09:40:56.445Z,988.81
2018-01-16T09:41:56.392Z,988.80
2018-01-16T09:42:56.351Z,988.83
2018-01-16T09:43:56.303Z,988.81
2018-01-16T09:44:56.257Z,988.88
2018-01-16T09:45:56.205Z,988.87
2018-01-16T09:46:56.159Z,988.85
2018-01-16T09:47:56.115Z,988.85
2018-01-16T09:48:56.067Z,988.87
2018-01-16T09:49:56.018Z,988.84
2018-01-16T09:50:55.972Z,988.85
2018-01-16T09:51:55.922Z,988.82
2018-01-16T09:52:55.873Z,988.73
2018-01-16T09:53:55.826Z,988.66
2018-01-16T09:54:55.784Z,988.66
2018-01-16T09:55:55.734Z,988.72
2018-01-16T09:56:55.687Z,988.69
2018-01-16T09:57:55.640Z,988.74
2018-01-16T09:58:55.587Z,988.75
2018-01-16T09:59:55.542Z,988.79
2018-01-16T10:00:55.491Z,988.74
2018-01-16T10:01:55.445Z,988.85
2018-01-16T10:02:55.399Z,988.82
2018-01-16T10:03:55.348Z,988.83
2018-01-16T10:04:55.302Z,988.86
2018-01-16T10:05:55.255Z,988.85
2018-01-16T10:06:55.204Z,988.80
2018-01-16T10:07:55.160Z,988.70
2018-01-16T10:08:55.107Z,988.58
2018-01-16T10:09:55.059Z,988.63
2018-01-16T10:10:55.009Z,988.70
2018-01-16T10:11:54.964Z,988.64
2018-01-16T10:12:54.913Z,988.71
2018-01-16T10:13:54.865Z,988.82
2018-01-16T10:14:54.816Z,988.73
2018-01-16T10:15:54.767Z,988.70
2018-01-16T10:16:54.721Z,988.72
2018-01-16T10:17:54.670Z,988.76
2018-01-16T10:18:54.631Z,988.87
2018-01-16T10:19:54.575Z,988.84
2018-01-16T10:20:54.526Z,988.95
2018-01-16T10:21:54.477Z,988.95
2018-01-16T10:22:54.427Z,988.87
2018-01-16T10:23:54.381Z,988.96
2018-01-16T10:24:54.330Z,988.99
2018-01-16T10:25:54.281Z,988.98
2018-01-16T10:26:54.239Z,989.08
2018-01-16T10:27:54.188Z,988.98
2018-01-16T10:28:54.139Z,989.03
2018-01-16T10:29:54.092Z,989.01
2018-01-16T10:30:54.042Z,988.95
2018-01-16T10:31:53.996Z,988.97
2018-01-16T10:32:53.948Z,988.93
2018-01-16T10:33:53.900Z,988.96
2018-01-16T10:34:53.853Z,988.91
2018-01-16T10:35:53.799Z,988.91
2018-01-16T10:36:53.751Z,988.97
2018-01-16T10:37:53.701Z,988.94
2018-01-16T10:38:53.657Z,988.95
2018-01-16T10:39:53.607Z,989.03
2018-01-16T10:40:53.555Z,989.01
2018-01-16T10:41:53.508Z,989.02
2018-01-16T10:42:53.468Z,989.12
2018-01-16T10:43:53.415Z,989.21
2018-01-16T10:44:53.362Z,989.19
2018-01-16T10:45:53.314Z,989.09
2018-01-16T10:46:53.272Z,989.11
2018-01-16T10:47:53.221Z,989.23
2018-01-16T10:48:53.171Z,989.20
2018-01-16T10:49:53.124Z,989.23
2018-01-16T10:50:53.072Z,989.34
2018-01-16T10:51:53.026Z,989.39
2018-01-16T10:52:52.975Z,989.45
2018-01-16T10:53:52.928Z,989.42
2018-01-16T10:54:52.879Z,989.46
2018-01-16T10:55:52.835Z,989.39
2018-01-16T10:56:52.789Z,989.49
2018-01-16T10:57:52.741Z,989.43
2018-01-16T10:58:52.690Z,989.45
2018-01-16T10:59:52.644Z,989.52
2018-01-16T11:00:52.592Z,989.46
2018-01-16T11:01:52.542Z,989.43
2018-01-16T11:02:52.494Z,989.40
2018-01-16T11:03:52.447Z,989.41
2018-01-16T11:04:52.396Z,989.44
2018-01-16T11:05:52.353Z,989.48
2018-01-16T11:06:52.305Z,989.44
2018-01-16T11:07:52.254Z,989.43
2018-01-16T11:08:52.213Z,989.47
2018-01-16T11:09:52.159Z,989.43
2018-01-16T11:10:52.111Z,989.44
2018-01-16T11:11:52.062Z,989.37
2018-01-16T11:12:52.020Z,989.39
2018-01-16T11:13:51.970Z,989.38
2018-01-16T11:14:51.920Z,989.43
2018-01-16T11:15:51.875Z,989.47
2018-01-16T11:16:51.828Z,989.56
2018-01-16T11:17:51.777Z,989.65
2018-01-16T11:18:51.727Z,989.63
2018-01-16T11:19:51.682Z,989.68
2018-01-16T11:20:51.630Z,989.62
2018-01-16T11:21:51.584Z,989.69
2018-01-16T11:22:51.536Z,989.72
2018-01-16T11:23:51.490Z,989.74
2018-01-16T11:24:51.441Z,989.83
2018-01-16T11:25:51.394Z,989.86
2018-01-16T11:26:51.346Z,989.86
2018-01-16T11:27:51.296Z,989.79
2018-01-16T11:28:51.253Z,989.80
2018-01-16T11:29:51.242Z,989.82
2018-01-16T11:30:51.171Z,989.86
2018-01-16T11:31:51.128Z,989.74
2018-01-16T11:32:51.076Z,989.83
2018-01-16T11:33:51.019Z,989.74
2018-01-16T11:34:50.987Z,989.78
2018-01-16T11:35:50.939Z,989.74
2018-01-16T11:36:50.883Z,989.82
2018-01-16T11:37:50.834Z,989.79
2018-01-16T11:38:50.816Z,989.84
2018-01-16T11:39:50.730Z,989.91
2018-01-16T11:40:50.705Z,989.88
2018-01-16T11:41:50.654Z,989.85
2018-01-16T11:42:50.586Z,989.85
2018-01-16T11:43:50.554Z,989.82
2018-01-16T11:44:50.501Z,989.89
2018-01-16T11:45:50.439Z,989.81
2018-01-16T11:46:50.482Z,989.73
2018-01-16T11:47:50.373Z,989.86
2018-01-16T11:48:50.322Z,989.86
2018-01-16T11:49:50.250Z,989.84
2018-01-16T11:50:50.228Z,989.83
2018-01-16T11:51:50.173Z,989.86
2018-01-16T11:52:50.110Z,989.84
2018-01-16T11:53:50.056Z,989.87
2018-01-16T11:54:50.019Z,989.80
2018-01-16T11:55:49.962Z,989.88
2018-01-16T11:56:50.009Z,989.88
2018-01-16T11:57:49.885Z,989.88
2018-01-16T11:58:49.823Z,989.87
2018-01-16T11:59:49.795Z,989.90
2018-01-16T12:00:49.748Z,989.82
2018-01-16T12:01:49.720Z,989.74
2018-01-16T12:02:49.636Z,989.70
2018-01-16T12:03:49.596Z,989.76
2018-01-16T12:04:49.582Z,989.76
2018-01-16T12:05:49.493Z,989.79
2018-01-16T12:06:49.455Z,989.80
2018-01-16T12:07:49.400Z,989.71
2018-01-16T12:08:49.350Z,989.72
2018-01-16T12:09:49.303Z,989.69
2018-01-16T12:10:49.261Z,989.67
2018-01-16T12:11:49.207Z,989.78
2018-01-16T12:12:49.154Z,989.78
2018-01-16T12:13:49.111Z,989.71
2018-01-16T12:14:49.068Z,989.74
2018-01-16T12:15:49.019Z,989.75
2018-01-16T12:16:48.977Z,989.73
2018-01-16T12:17:48.923Z,989.77
2018-01-16T12:18:48.877Z,989.74
2018-01-16T12:19:48.829Z,989.84
2018-01-16T12:20:48.787Z,989.86
2018-01-16T12:21:48.728Z,989.68
2018-01-16T12:22:48.677Z,989.74
2018-01-16T12:23:48.630Z,989.83
2018-01-16T12:24:48.587Z,989.84
2018-01-16T12:25:48.537Z,989.77
2018-01-16T12:26:48.493Z,989.72
2018-01-16T12:27:48.441Z,989.82